Terminal Aerodrome Forecast
Issued by NWS

Home | Current Version | Previous Version | Text Only | Print | Product List | Glossary On
Versions: 1 2 3 4 5 6 7 8 9 10 11 12 13 14 15 16
000
FTUS43 KAPX 301604 AAB
TAFPLN
TAF AMD
KPLN 301604Z 3016/0112 29008KT P6SM VCSH SCT025 OVC050
      TEMPO 3016/3020 5SM TSRA BKN025CB
     FM302000 35010KT P6SM VCSH SCT015 OVC025
     FM010100 32010KT P6SM OVC035
     FM010400 32009KT P6SM OVC018=

USA.gov is the U.S. government's official web portal to all federal, state and local government web resources and services.